Time;durP1;ratioP1;P1;durP2;ratioP2;P2;SDS_P1;SDS_P2;PMS_P1;PMS_P2;Temp;Humidity;BMP_temperature;BMP_pressure;BME280_temperature;BME280_humidity;BME280_pressure;Samples;Min_cycle;Max_cycle;Signal;HPM_P1;HPM_P2
2022/07/29 00:00:57;;;;;;;2.08;1.30;;;13.10;79.30;;;;;;5028744;28;20037;-71
2022/07/29 00:03:22;;;;;;;8.55;1.30;;;13.00;79.10;;;;;;5025010;28;20029;-71
2022/07/29 00:05:48;;;;;;;5.45;1.17;;;13.10;79.30;;;;;;5026879;28;20319;-71
2022/07/29 00:08:15;;;;;;;3.53;1.20;;;13.10;79.20;;;;;;5028322;28;20045;-71
2022/07/29 00:10:41;;;;;;;2.47;1.13;;;13.10;78.30;;;;;;5026755;28;20384;-71
2022/07/29 00:13:07;;;;;;;4.38;1.40;;;13.10;78.60;;;;;;5029655;28;20112;-71
2022/07/29 00:15:32;;;;;;;2.08;1.00;;;13.10;78.60;;;;;;5026455;28;20417;-71
2022/07/29 00:17:58;;;;;;;3.92;1.42;;;13.10;78.30;;;;;;5024065;28;20033;-71
2022/07/29 00:20:23;;;;;;;6.20;1.30;;;13.10;78.10;;;;;;5027700;28;20032;-71
2022/07/29 00:22:49;;;;;;;3.83;1.13;;;13.10;77.80;;;;;;5030945;28;20059;-71
2022/07/29 00:25:15;;;;;;;2.83;1.15;;;13.10;78.00;;;;;;5025665;28;20029;-71
2022/07/29 00:27:40;;;;;;;4.93;1.27;;;13.10;77.90;;;;;;5027054;28;20040;-72
2022/07/29 00:30:07;;;;;;;4.85;1.35;;;13.00;77.80;;;;;;5030438;28;20033;-71
2022/07/29 00:32:33;;;;;;;7.70;1.52;;;13.00;77.90;;;;;;5025786;28;20116;-71
2022/07/29 00:37:43;;;;;;;3.17;1.20;;;13.10;77.80;;;;;;5029626;28;20055;-71
2022/07/29 00:40:09;;;;;;;4.57;1.30;;;13.10;77.90;;;;;;5031245;28;20113;-71
2022/07/29 00:42:47;;;;;;;3.85;1.15;;;13.20;77.40;;;;;;5026359;28;20037;-71
2022/07/29 00:45:14;;;;;;;7.85;1.42;;;13.20;76.90;;;;;;5020139;28;20029;-71
2022/07/29 00:47:40;;;;;;;5.68;1.40;;;13.30;76.90;;;;;;5024310;28;20564;-71
2022/07/29 00:50:07;;;;;;;3.78;1.40;;;13.20;76.80;;;;;;5026232;28;20108;-71
2022/07/29 00:52:37;;;;;;;3.45;1.13;;;13.30;76.90;;;;;;5028072;28;20068;-71
2022/07/29 00:55:04;;;;;;;2.13;1.05;;;13.20;77.20;;;;;;5017704;28;20473;-71
2022/07/29 00:57:30;;;;;;;2.45;1.30;;;13.20;77.00;;;;;;5029153;28;20121;-71
2022/07/29 00:59:56;;;;;;;7.22;1.25;;;13.20;77.20;;;;;;5031293;28;20096;-71
2022/07/29 01:02:21;;;;;;;4.40;1.33;;;13.20;77.20;;;;;;5024234;28;20022;-71
2022/07/29 01:04:48;;;;;;;3.45;1.25;;;13.20;76.70;;;;;;5023865;28;20034;-71
2022/07/29 01:07:13;;;;;;;2.90;1.38;;;13.20;77.00;;;;;;5027151;28;20052;-71
2022/07/29 01:09:40;;;;;;;4.15;1.20;;;13.20;76.90;;;;;;5024092;28;20067;-71
2022/07/29 01:12:06;;;;;;;6.90;1.10;;;13.20;76.80;;;;;;5027298;28;20021;-71
2022/07/29 01:14:32;;;;;;;3.50;1.25;;;13.20;76.90;;;;;;5028843;28;20079;-71
2022/07/29 01:17:01;;;;;;;5.45;1.60;;;13.30;76.80;;;;;;5025625;28;20493;-71
2022/07/29 01:20:00;;;;;;;9.43;1.40;;;13.30;76.70;;;;;;5027787;28;20177;-71
2022/07/29 01:22:57;;;;;;;5.53;1.40;;;13.30;76.60;;;;;;5017116;28;20113;-71
2022/07/29 01:26:00;;;;;;;3.33;1.30;;;13.30;76.50;;;;;;5027981;28;20092;-72
2022/07/29 01:28:43;;;;;;;3.20;1.38;;;13.30;77.00;;;;;;5025200;28;20029;-71
2022/07/29 01:31:11;;;;;;;4.72;1.20;;;13.30;76.80;;;;;;5028493;28;20064;-71
2022/07/29 01:33:50;;;;;;;3.28;1.25;;;13.30;76.50;;;;;;5025530;28;20090;-71
2022/07/29 01:36:40;;;;;;;2.65;1.20;;;13.40;76.60;;;;;;5019328;28;20446;-71
2022/07/29 01:39:23;;;;;;;4.80;1.30;;;13.40;76.50;;;;;;5026101;28;20040;-71
2022/07/29 01:42:01;;;;;;;3.20;1.30;;;13.40;76.30;;;;;;5027774;28;20456;-71
2022/07/29 01:44:37;;;;;;;2.25;1.13;;;13.40;76.50;;;;;;5027549;28;20568;-71
2022/07/29 01:47:11;;;;;;;5.50;1.27;;;13.40;76.70;;;;;;5020348;28;20049;-71
2022/07/29 01:49:42;;;;;;;4.57;1.63;;;13.50;76.80;;;;;;5024167;28;20032;-71
2022/07/29 01:52:15;;;;;;;2.75;1.08;;;13.50;76.50;;;;;;5023473;28;20116;-71
2022/07/29 01:54:45;;;;;;;3.53;1.55;;;13.50;76.80;;;;;;5025014;28;20075;-71
2022/07/29 01:57:14;;;;;;;4.63;1.52;;;13.50;76.30;;;;;;5022610;28;20024;-71
2022/07/29 01:59:41;;;;;;;3.85;1.40;;;13.40;76.60;;;;;;5028986;28;20104;-71
2022/07/29 02:02:09;;;;;;;5.32;1.67;;;13.50;76.70;;;;;;5017604;28;20404;-71
2022/07/29 02:04:36;;;;;;;4.82;1.50;;;13.50;76.60;;;;;;5026326;28;20030;-71
2022/07/29 02:07:05;;;;;;;4.53;1.40;;;13.50;76.90;;;;;;5027401;28;20041;-71
2022/07/29 02:09:34;;;;;;;4.60;1.80;;;13.40;76.70;;;;;;5024016;28;20028;-71
2022/07/29 02:12:01;;;;;;;6.82;1.42;;;13.30;77.00;;;;;;5026746;28;21541;-71
2022/07/29 02:14:31;;;;;;;8.40;1.80;;;13.30;77.00;;;;;;5026436;28;20036;-71
2022/07/29 02:16:59;;;;;;;4.32;1.23;;;13.30;77.70;;;;;;5017887;28;20038;-71
2022/07/29 02:19:28;;;;;;;4.55;1.30;;;13.30;77.10;;;;;;5022152;28;20125;-71
2022/07/29 02:21:56;;;;;;;4.63;1.63;;;13.30;77.00;;;;;;5016117;28;20025;-71
2022/07/29 02:24:24;;;;;;;4.88;1.42;;;13.20;77.80;;;;;;5025665;28;20030;-71
2022/07/29 02:26:51;;;;;;;4.18;1.63;;;13.20;77.70;;;;;;5028217;28;20061;-71
2022/07/29 02:29:18;;;;;;;5.13;1.63;;;13.20;78.10;;;;;;5029216;28;20112;-71
2022/07/29 02:31:46;;;;;;;4.10;1.27;;;13.20;77.80;;;;;;5027424;28;20393;-71
2022/07/29 02:34:14;;;;;;;5.35;1.55;;;13.20;78.10;;;;;;5023972;28;20556;-71
2022/07/29 02:36:41;;;;;;;4.22;1.70;;;13.10;78.20;;;;;;5019107;28;20072;-72
2022/07/29 02:39:08;;;;;;;6.32;1.60;;;13.10;78.50;;;;;;5023547;28;20030;-71
2022/07/29 02:41:41;;;;;;;6.80;1.60;;;13.10;78.60;;;;;;5028254;28;20045;-71
2022/07/29 02:44:16;;;;;;;2.75;1.58;;;13.00;78.80;;;;;;5029089;28;20025;-71
2022/07/29 02:47:13;;;;;;;4.40;1.63;;;13.00;79.10;;;;;;5026707;28;20470;-71
2022/07/29 02:50:08;;;;;;;5.97;1.70;;;13.00;79.40;;;;;;5025861;28;20045;-71
2022/07/29 02:52:43;;;;;;;4.95;1.67;;;12.90;79.70;;;;;;5023614;28;20121;-71
2022/07/29 02:55:32;;;;;;;5.78;1.55;;;12.90;79.70;;;;;;5021765;28;20890;-71
2022/07/29 02:58:05;;;;;;;5.18;1.45;;;12.90;79.90;;;;;;5027126;28;20167;-71
2022/07/29 03:00:36;;;;;;;8.77;1.92;;;12.90;80.10;;;;;;5022185;28;20041;-71
2022/07/29 03:03:05;;;;;;;6.45;1.80;;;12.90;80.50;;;;;;5017959;28;20032;-71
2022/07/29 03:05:32;;;;;;;12.80;2.15;;;12.90;80.40;;;;;;5023239;28;20050;-71
2022/07/29 03:08:02;;;;;;;11.18;1.52;;;12.80;80.50;;;;;;5023827;28;20037;-71
2022/07/29 03:10:29;;;;;;;4.03;1.63;;;12.80;80.70;;;;;;5018960;28;20032;-71
2022/07/29 03:12:56;;;;;;;11.52;1.88;;;12.80;80.70;;;;;;5023626;28;20037;-71
2022/07/29 03:15:22;;;;;;;10.15;2.17;;;12.70;80.90;;;;;;5024510;28;20389;-71
2022/07/29 03:17:48;;;;;;;7.50;1.77;;;12.80;81.10;;;;;;5019552;28;20151;-71
2022/07/29 03:20:15;;;;;;;10.02;1.77;;;12.80;81.20;;;;;;5021841;28;20018;-71
2022/07/29 03:22:43;;;;;;;6.13;2.03;;;12.70;81.50;;;;;;5022421;28;20030;-71
2022/07/29 03:25:10;;;;;;;3.35;1.70;;;12.70;81.60;;;;;;5026377;28;20029;-71
2022/07/29 03:27:36;;;;;;;5.10;1.67;;;12.80;81.30;;;;;;5021546;28;20033;-71
2022/07/29 03:30:02;;;;;;;9.35;2.10;;;12.80;81.40;;;;;;5020399;28;20040;-71
2022/07/29 03:32:27;;;;;;;4.43;1.95;;;12.80;81.20;;;;;;5025302;28;20041;-71
2022/07/29 03:34:53;;;;;;;9.20;2.15;;;12.90;81.10;;;;;;5023717;28;20480;-71
2022/07/29 03:37:18;;;;;;;3.42;1.75;;;12.90;81.30;;;;;;5026378;28;20072;-71
2022/07/29 03:39:45;;;;;;;3.80;1.80;;;12.90;81.50;;;;;;5026176;28;20362;-71
2022/07/29 03:42:15;;;;;;;7.78;1.70;;;12.90;81.30;;;;;;5024314;28;20243;-71
2022/07/29 03:44:42;;;;;;;5.72;1.73;;;13.00;81.30;;;;;;5018402;28;20037;-71
2022/07/29 03:47:10;;;;;;;13.07;2.83;;;13.00;81.20;;;;;;5024826;28;20033;-71
2022/07/29 03:49:37;;;;;;;6.10;2.15;;;13.00;81.10;;;;;;5012521;28;20037;-71
2022/07/29 03:52:04;;;;;;;14.40;2.45;;;13.10;81.30;;;;;;5025106;28;20029;-71
2022/07/29 03:54:29;;;;;;;6.32;2.08;;;13.10;81.20;;;;;;5026032;28;20461;-71
2022/07/29 03:57:00;;;;;;;5.82;1.80;;;13.20;81.10;;;;;;5023361;28;20049;-71
2022/07/29 03:59:27;;;;;;;3.33;1.98;;;13.10;81.10;;;;;;5011645;28;20017;-71
2022/07/29 04:01:53;;;;;;;4.72;1.88;;;13.20;81.30;;;;;;5027590;28;20422;-71
2022/07/29 04:04:19;;;;;;;10.40;2.38;;;13.10;81.10;;;;;;5026648;28;20734;-71
2022/07/29 04:06:46;;;;;;;8.40;1.73;;;13.20;81.10;;;;;;5031215;28;20030;-71
2022/07/29 04:09:11;;;;;;;11.85;1.98;;;13.20;81.20;;;;;;5026533;28;20022;-71
2022/07/29 04:11:41;;;;;;;12.00;1.73;;;13.30;81.40;;;;;;5018455;28;20032;-71
2022/07/29 04:14:06;;;;;;;6.28;1.95;;;13.30;81.10;;;;;;5018727;28;20056;-71
2022/07/29 04:16:32;;;;;;;25.67;2.63;;;13.30;81.30;;;;;;5019273;28;20480;-71
2022/07/29 04:18:58;;;;;;;11.07;1.90;;;13.30;81.30;;;;;;5027405;28;20022;-71
2022/07/29 04:21:23;;;;;;;4.85;1.85;;;13.30;81.20;;;;;;5028196;28;20049;-71
2022/07/29 04:23:49;;;;;;;5.50;2.00;;;13.40;81.40;;;;;;5026338;28;20079;-71
2022/07/29 04:26:19;;;;;;;5.93;1.98;;;13.40;81.30;;;;;;5028158;28;20076;-69
2022/07/29 04:28:44;;;;;;;9.85;2.33;;;13.50;81.40;;;;;;5029939;28;20029;-68
2022/07/29 04:31:11;;;;;;;6.38;1.65;;;13.50;81.20;;;;;;5030388;28;20445;-68
2022/07/29 04:33:36;;;;;;;3.58;1.50;;;13.50;81.10;;;;;;5027173;28;20057;-68
2022/07/29 04:36:02;;;;;;;7.75;1.73;;;13.50;80.90;;;;;;5029089;28;20068;-68
2022/07/29 04:38:27;;;;;;;9.88;2.00;;;13.60;81.20;;;;;;5028483;28;20053;-68
2022/07/29 04:40:53;;;;;;;14.00;2.08;;;13.60;80.90;;;;;;5026921;28;20049;-68
2022/07/29 04:43:18;;;;;;;5.63;1.60;;;13.70;80.90;;;;;;5026621;28;20084;-68
2022/07/29 04:45:44;;;;;;;3.47;1.85;;;13.70;81.30;;;;;;5028599;28;20026;-68
2022/07/29 04:48:09;;;;;;;7.20;1.63;;;13.70;80.90;;;;;;5028286;28;20130;-68
2022/07/29 04:50:38;;;;;;;4.28;1.75;;;13.80;80.90;;;;;;5021283;28;20068;-68
2022/07/29 04:53:03;;;;;;;7.18;1.52;;;13.80;80.90;;;;;;5028174;28;20034;-68
2022/07/29 04:55:29;;;;;;;5.85;2.10;;;13.90;80.60;;;;;;5016264;28;20033;-68
2022/07/29 04:57:54;;;;;;;8.60;2.13;;;13.90;80.40;;;;;;5021937;28;20041;-68
2022/07/29 05:00:20;;;;;;;4.45;1.85;;;13.90;80.30;;;;;;5022921;28;20029;-68
2022/07/29 05:02:45;;;;;;;7.63;2.28;;;14.00;80.60;;;;;;5024813;28;20052;-68
2022/07/29 05:05:11;;;;;;;5.75;1.73;;;14.10;80.50;;;;;;5026797;28;20040;-68
2022/07/29 05:07:36;;;;;;;4.45;1.60;;;14.10;79.70;;;;;;5025501;28;20029;-68
2022/07/29 05:10:02;;;;;;;3.50;1.58;;;14.30;79.20;;;;;;5026109;28;20108;-68
2022/07/29 05:12:27;;;;;;;2.90;1.52;;;14.40;79.40;;;;;;5023605;28;20068;-68
2022/07/29 05:14:53;;;;;;;4.35;1.42;;;14.50;78.90;;;;;;5023307;28;20404;-68
2022/07/29 05:17:19;;;;;;;4.30;1.63;;;14.50;78.80;;;;;;5024520;28;20107;-68
2022/07/29 05:19:44;;;;;;;4.85;1.67;;;14.60;78.80;;;;;;5023504;28;20533;-68
2022/07/29 05:22:10;;;;;;;4.25;1.60;;;14.70;78.90;;;;;;5023367;28;20107;-68
2022/07/29 05:24:35;;;;;;;3.25;1.90;;;14.70;78.30;;;;;;5024858;28;20026;-68
2022/07/29 05:27:01;;;;;;;4.32;1.70;;;14.70;78.50;;;;;;5028195;28;20472;-68
2022/07/29 05:29:27;;;;;;;6.85;1.80;;;14.80;78.20;;;;;;5025321;28;20480;-68
2022/07/29 05:31:52;;;;;;;5.10;1.77;;;14.90;77.30;;;;;;5027414;28;20080;-68
2022/07/29 05:34:18;;;;;;;3.33;1.45;;;15.00;77.90;;;;;;5020179;28;20026;-68
2022/07/29 05:36:45;;;;;;;5.15;1.83;;;15.00;77.50;;;;;;5026288;28;20025;-68
2022/07/29 05:39:10;;;;;;;3.30;1.52;;;15.00;77.20;;;;;;5024357;28;20083;-68
2022/07/29 05:41:36;;;;;;;6.75;1.65;;;15.00;76.70;;;;;;5024804;28;20029;-68
2022/07/29 05:44:02;;;;;;;6.63;1.80;;;15.10;76.60;;;;;;5025364;28;20021;-68
2022/07/29 05:46:27;;;;;;;6.53;1.90;;;15.10;76.80;;;;;;5020544;28;20144;-68
2022/07/29 05:48:53;;;;;;;5.65;1.60;;;15.10;77.20;;;;;;5012107;28;20037;-68
2022/07/29 05:51:18;;;;;;;4.28;1.65;;;15.10;76.80;;;;;;5023449;28;20465;-68
2022/07/29 05:53:44;;;;;;;4.07;1.80;;;15.10;76.90;;;;;;5027555;28;20083;-68
2022/07/29 05:56:10;;;;;;;4.70;1.73;;;15.10;76.90;;;;;;5017284;28;20058;-68
2022/07/29 05:58:36;;;;;;;3.72;1.67;;;15.10;76.50;;;;;;5029445;28;20034;-68
2022/07/29 06:01:02;;;;;;;7.00;1.73;;;15.10;76.40;;;;;;5025111;28;20097;-68
2022/07/29 06:03:28;;;;;;;6.10;1.70;;;15.20;76.50;;;;;;5025487;28;20619;-68
2022/07/29 06:05:53;;;;;;;3.05;1.63;;;15.30;76.90;;;;;;5022841;28;20112;-68
2022/07/29 06:08:19;;;;;;;10.38;1.88;;;15.40;76.90;;;;;;5029836;28;20037;-68
2022/07/29 06:10:45;;;;;;;5.95;1.77;;;15.40;77.30;;;;;;5017951;28;20311;-68
2022/07/29 06:13:11;;;;;;;6.00;1.70;;;15.50;77.00;;;;;;5018051;28;20026;-68
2022/07/29 06:15:37;;;;;;;5.90;2.00;;;15.60;76.50;;;;;;5022682;28;20030;-68
2022/07/29 06:18:03;;;;;;;6.35;1.85;;;15.70;77.30;;;;;;5020818;28;20028;-68
2022/07/29 06:20:29;;;;;;;5.22;1.58;;;15.80;76.80;;;;;;5025416;28;20647;-68
2022/07/29 06:22:55;;;;;;;4.47;1.50;;;15.90;76.70;;;;;;5025208;28;20055;-68
2022/07/29 06:25:21;;;;;;;4.90;1.70;;;16.00;75.90;;;;;;5023991;28;20578;-68
2022/07/29 06:27:47;;;;;;;4.82;1.98;;;16.10;76.20;;;;;;5028795;28;20109;-68
2022/07/29 06:30:12;;;;;;;5.30;1.65;;;16.10;75.00;;;;;;5026928;28;20060;-68
2022/07/29 06:32:38;;;;;;;4.47;1.90;;;16.10;75.80;;;;;;5021026;28;20120;-68
2022/07/29 06:35:04;;;;;;;5.90;1.95;;;16.20;74.80;;;;;;5015727;28;20033;-68
2022/07/29 06:37:30;;;;;;;5.43;1.83;;;16.20;73.90;;;;;;5026138;28;20049;-68
2022/07/29 06:42:43;;;;;;;4.20;1.60;;;16.50;74.00;;;;;;5025044;28;20574;-68
2022/07/29 06:45:12;;;;;;;3.75;1.90;;;16.60;74.70;;;;;;5024821;28;20104;-68
2022/07/29 06:47:38;;;;;;;3.92;1.67;;;16.70;74.50;;;;;;5018031;28;20117;-68
2022/07/29 06:50:04;;;;;;;7.68;2.03;;;16.90;73.60;;;;;;5025061;28;20481;-68
2022/07/29 06:52:30;;;;;;;3.78;1.55;;;17.10;73.80;;;;;;5014003;28;20364;-68
2022/07/29 06:54:55;;;;;;;3.92;1.40;;;17.30;73.40;;;;;;5025478;28;20037;-68
2022/07/29 06:57:21;;;;;;;4.78;1.48;;;17.30;71.70;;;;;;5027536;28;20026;-68
2022/07/29 06:59:47;;;;;;;5.88;1.88;;;17.50;71.80;;;;;;5026914;28;20053;-68
2022/07/29 07:02:13;;;;;;;6.82;1.70;;;17.70;72.70;;;;;;5027722;28;20033;-68
2022/07/29 07:04:39;;;;;;;6.45;1.75;;;17.60;70.60;;;;;;5025228;28;20481;-68
2022/07/29 07:07:04;;;;;;;7.90;1.83;;;17.60;70.80;;;;;;5021594;28;20025;-68
2022/07/29 07:09:29;;;;;;;4.65;1.60;;;17.80;71.50;;;;;;5028761;28;20075;-68
2022/07/29 07:11:55;;;;;;;4.95;2.05;;;17.90;71.10;;;;;;5019313;28;20156;-68
2022/07/29 07:14:20;;;;;;;7.15;1.50;;;17.80;70.10;;;;;;5021660;28;20481;-68
2022/07/29 07:16:46;;;;;;;3.40;1.63;;;17.70;71.30;;;;;;5023830;28;20037;-68
2022/07/29 07:19:11;;;;;;;4.35;1.67;;;18.00;71.60;;;;;;5024223;28;20029;-68
2022/07/29 07:21:37;;;;;;;6.00;1.75;;;18.10;71.00;;;;;;5026814;28;20025;-68
2022/07/29 07:24:03;;;;;;;4.50;1.80;;;17.90;69.80;;;;;;5026353;28;20026;-68
2022/07/29 07:26:28;;;;;;;3.63;1.38;;;17.70;70.10;;;;;;5024256;28;20100;-68
2022/07/29 07:28:54;;;;;;;6.18;1.75;;;18.00;71.50;;;;;;5027389;28;20125;-68
2022/07/29 07:31:19;;;;;;;6.18;1.75;;;18.10;70.60;;;;;;5022265;28;20112;-68
2022/07/29 07:33:45;;;;;;;7.03;1.73;;;18.20;70.30;;;;;;5024401;28;20376;-68
2022/07/29 07:36:10;;;;;;;5.40;1.45;;;18.20;69.70;;;;;;5020398;28;20099;-68
2022/07/29 07:38:36;;;;;;;3.67;1.45;;;18.30;70.30;;;;;;5027846;28;20081;-68
2022/07/29 07:41:02;;;;;;;4.05;1.52;;;18.40;70.60;;;;;;5030513;28;20135;-68
2022/07/29 07:43:28;;;;;;;2.92;1.40;;;18.40;69.80;;;;;;5031751;28;20037;-68
2022/07/29 07:45:53;;;;;;;4.53;1.65;;;18.50;70.90;;;;;;5023806;28;20547;-68
2022/07/29 07:48:19;;;;;;;3.25;1.60;;;18.60;69.60;;;;;;5028816;28;20026;-68
2022/07/29 07:50:44;;;;;;;4.60;1.58;;;18.60;69.00;;;;;;5024021;28;20034;-68
2022/07/29 07:53:10;;;;;;;2.97;1.30;;;18.70;68.50;;;;;;5022361;28;20025;-68
2022/07/29 07:55:44;;;;;;;3.47;1.55;;;18.80;68.80;;;;;;5026493;28;20029;-68
2022/07/29 07:58:10;;;;;;;3.85;1.50;;;19.00;69.60;;;;;;5030747;28;20025;-68
2022/07/29 08:00:36;;;;;;;3.58;1.65;;;19.10;67.70;;;;;;5027137;28;20029;-68
2022/07/29 08:03:02;;;;;;;4.47;1.55;;;19.30;69.20;;;;;;5024152;28;20080;-68
2022/07/29 08:05:27;;;;;;;4.50;1.63;;;19.30;66.40;;;;;;5018440;28;20083;-69
2022/07/29 08:07:53;;;;;;;3.17;1.30;;;19.60;66.40;;;;;;5026821;28;20484;-68
2022/07/29 08:13:05;;;;;;;7.65;1.80;;;19.70;67.30;;;;;;5011272;28;20104;-69
2022/07/29 08:15:30;;;;;;;4.90;1.40;;;19.90;66.30;;;;;;5025555;28;20032;-68
2022/07/29 08:17:56;;;;;;;4.22;1.40;;;20.10;65.40;;;;;;5018167;28;20476;-68
2022/07/29 08:20:21;;;;;;;4.30;1.50;;;20.30;64.10;;;;;;5008210;28;20032;-69
2022/07/29 08:22:47;;;;;;;2.72;1.20;;;20.50;63.90;;;;;;5014738;28;20034;-68
2022/07/29 08:25:12;;;;;;;4.10;1.30;;;20.60;63.40;;;;;;5027193;28;20051;-69
2022/07/29 08:27:38;;;;;;;3.95;1.63;;;20.60;64.00;;;;;;5027887;28;20473;-68
2022/07/29 08:30:04;;;;;;;3.22;1.48;;;20.70;64.20;;;;;;5032175;28;20044;-68
2022/07/29 08:32:31;;;;;;;3.22;1.48;;;20.90;63.40;;;;;;5028762;28;20026;-69
2022/07/29 08:34:56;;;;;;;4.07;1.50;;;20.70;63.60;;;;;;5027952;28;20372;-68
2022/07/29 08:37:22;;;;;;;3.95;1.45;;;20.70;63.90;;;;;;5020073;28;20046;-69
2022/07/29 08:39:47;;;;;;;3.75;1.30;;;20.70;63.20;;;;;;5021991;28;20036;-69
2022/07/29 08:42:13;;;;;;;3.25;1.25;;;20.90;63.70;;;;;;5020790;28;20021;-68
2022/07/29 08:44:39;;;;;;;3.08;1.40;;;20.70;62.90;;;;;;5024649;28;20089;-69
2022/07/29 08:47:05;;;;;;;3.83;1.55;;;20.90;63.20;;;;;;5018995;28;20033;-69
2022/07/29 08:49:33;;;;;;;3.05;1.35;;;21.00;60.60;;;;;;5022414;28;20033;-68
2022/07/29 08:51:59;;;;;;;6.22;1.50;;;21.30;61.30;;;;;;5024228;28;20065;-68
2022/07/29 08:54:25;;;;;;;3.47;1.40;;;21.60;61.00;;;;;;5026036;28;20033;-69
2022/07/29 08:56:51;;;;;;;2.85;1.23;;;21.50;60.50;;;;;;5026107;28;20039;-68
2022/07/29 08:59:24;;;;;;;4.65;1.55;;;21.90;60.80;;;;;;5029613;28;20022;-68
2022/07/29 09:01:53;;;;;;;5.45;1.58;;;22.20;59.90;;;;;;5022837;28;20026;-69
2022/07/29 09:04:19;;;;;;;4.10;1.17;;;22.50;58.80;;;;;;5026481;28;20392;-69
2022/07/29 09:06:49;;;;;;;6.28;1.45;;;22.10;58.50;;;;;;5019931;28;20060;-69
2022/07/29 09:09:15;;;;;;;4.03;1.27;;;22.00;59.50;;;;;;5028134;28;20029;-69
2022/07/29 09:11:42;;;;;;;4.13;1.48;;;22.20;58.70;;;;;;5020686;28;20029;-69
2022/07/29 09:14:08;;;;;;;3.83;1.38;;;22.90;59.10;;;;;;5022699;28;20061;-69
2022/07/29 09:16:49;;;;;;;4.57;1.20;;;22.90;59.30;;;;;;5029559;28;20034;-69
2022/07/29 09:19:24;;;;;;;4.95;1.35;;;22.90;56.40;;;;;;5025771;28;20456;-69
2022/07/29 09:22:02;;;;;;;5.28;1.38;;;23.30;56.10;;;;;;5017246;28;20035;-69
2022/07/29 09:24:42;;;;;;;5.00;1.23;;;23.50;55.10;;;;;;5027115;28;20053;-69
2022/07/29 09:27:20;;;;;;;3.05;1.17;;;23.50;55.50;;;;;;5028465;28;20515;-69
2022/07/29 09:29:45;;;;;;;4.30;1.20;;;23.70;55.30;;;;;;5014718;28;20034;-69
2022/07/29 09:32:11;;;;;;;3.30;1.27;;;23.70;55.10;;;;;;5026196;28;20022;-69
2022/07/29 09:34:37;;;;;;;7.15;1.52;;;23.00;53.80;;;;;;5016838;28;20071;-69
2022/07/29 09:37:03;;;;;;;5.47;1.38;;;23.30;56.10;;;;;;5028070;28;20042;-69
2022/07/29 09:39:45;;;;;;;5.03;1.30;;;23.30;56.70;;;;;;5022127;28;20041;-69
2022/07/29 09:42:11;;;;;;;2.78;1.20;;;23.10;57.20;;;;;;5024191;28;20541;-69
2022/07/29 09:44:50;;;;;;;5.15;1.35;;;23.10;56.70;;;;;;5029764;28;20096;-69
2022/07/29 09:47:17;;;;;;;2.65;1.17;;;23.00;55.80;;;;;;5020401;28;20101;-69
2022/07/29 09:49:57;;;;;;;5.30;1.27;;;22.90;56.10;;;;;;5028301;28;20036;-69
2022/07/29 09:52:23;;;;;;;5.55;1.50;;;23.00;55.80;;;;;;5024577;28;20029;-69
2022/07/29 09:54:49;;;;;;;4.43;1.50;;;23.10;57.40;;;;;;5025040;28;20420;-69
2022/07/29 09:57:24;;;;;;;5.63;1.20;;;23.10;55.60;;;;;;5024259;28;20120;-69
2022/07/29 10:00:02;;;;;;;3.25;1.30;;;23.30;56.40;;;;;;5017046;28;20021;-69
2022/07/29 10:02:32;;;;;;;3.55;1.35;;;23.60;57.20;;;;;;5019854;28;20041;-69
2022/07/29 10:04:58;;;;;;;3.85;1.42;;;23.50;55.70;;;;;;5022415;28;20025;-69
2022/07/29 10:07:24;;;;;;;4.35;1.30;;;23.80;57.20;;;;;;5026145;28;20429;-69
2022/07/29 10:09:55;;;;;;;3.60;1.10;;;23.80;55.70;;;;;;5026999;28;20084;-69
2022/07/29 10:12:21;;;;;;;5.35;1.35;;;23.80;55.40;;;;;;5025799;28;20021;-69
2022/07/29 10:14:48;;;;;;;3.88;1.13;;;23.80;54.60;;;;;;5026716;28;20101;-69
2022/07/29 10:17:14;;;;;;;2.83;1.17;;;24.00;54.50;;;;;;5025640;28;20379;-69
2022/07/29 10:19:39;;;;;;;4.00;1.50;;;24.00;54.50;;;;;;5021932;28;20021;-69
2022/07/29 10:22:08;;;;;;;3.15;1.20;;;24.00;53.90;;;;;;5026084;28;20124;-69
2022/07/29 10:24:35;;;;;;;4.93;1.25;;;24.10;53.90;;;;;;5022852;28;20038;-69
2022/07/29 10:27:01;;;;;;;2.17;1.00;;;24.00;55.10;;;;;;5025252;28;20411;-69
2022/07/29 10:29:28;;;;;;;2.08;1.00;;;23.70;54.50;;;;;;5026807;28;20025;-69
2022/07/29 10:32:22;;;;;;;2.70;1.20;;;24.00;53.60;;;;;;5022455;28;20069;-69
2022/07/29 10:35:12;;;;;;;2.17;1.00;;;24.30;53.10;;;;;;5025577;28;20053;-69
2022/07/29 10:38:06;;;;;;;4.20;1.25;;;24.90;54.90;;;;;;5024989;28;20132;-69
2022/07/29 10:43:35;;;;;;;5.22;1.40;;;25.10;48.80;;;;;;5025533;28;20056;-69
2022/07/29 10:46:02;;;;;;;1.85;0.80;;;24.80;51.30;;;;;;5020511;28;20473;-69
2022/07/29 10:48:28;;;;;;;4.70;1.10;;;25.00;50.40;;;;;;5028212;28;20036;-69
2022/07/29 10:51:02;;;;;;;5.28;0.80;;;25.10;50.50;;;;;;5027876;28;20022;-69
2022/07/29 10:53:48;;;;;;;5.60;1.50;;;25.20;52.60;;;;;;5028974;28;20029;-69
2022/07/29 10:56:43;;;;;;;2.28;1.20;;;25.00;49.30;;;;;;5024276;28;20112;-69
2022/07/29 10:59:20;;;;;;;6.05;0.95;;;25.30;52.40;;;;;;5010492;28;20092;-69
2022/07/29 11:01:50;;;;;;;5.22;1.50;;;25.00;51.50;;;;;;5025184;28;20487;-69
2022/07/29 11:04:35;;;;;;;3.15;1.30;;;25.50;49.90;;;;;;5029053;28;20117;-69
2022/07/29 11:07:01;;;;;;;4.30;1.30;;;25.50;49.70;;;;;;5027090;28;20040;-69
2022/07/29 11:09:29;;;;;;;4.32;1.50;;;26.10;48.80;;;;;;5028445;28;20052;-69
2022/07/29 11:11:55;;;;;;;2.72;1.25;;;26.40;49.00;;;;;;5027122;28;20053;-69
2022/07/29 11:15:00;;;;;;;3.28;1.20;;;26.90;46.60;;;;;;5029689;28;20107;-69
2022/07/29 11:17:25;;;;;;;5.05;1.30;;;27.30;46.20;;;;;;5024668;28;20075;-69
2022/07/29 11:19:51;;;;;;;3.35;1.10;;;27.40;45.40;;;;;;5027543;28;20115;-69
2022/07/29 11:22:36;;;;;;;2.85;1.17;;;27.80;45.20;;;;;;5027511;28;20033;-69
2022/07/29 11:25:29;;;;;;;5.90;1.45;;;27.50;45.20;;;;;;5024940;28;20040;-69
2022/07/29 11:28:10;;;;;;;4.18;1.10;;;27.90;44.50;;;;;;5022535;28;20524;-69
2022/07/29 11:30:49;;;;;;;7.03;1.40;;;27.50;44.00;;;;;;5025366;28;20547;-69
2022/07/29 11:33:35;;;;;;;4.43;1.10;;;28.20;41.70;;;;;;5025937;28;20030;-69
2022/07/29 11:36:15;;;;;;;3.40;1.10;;;28.00;41.50;;;;;;5025742;28;20057;-69
2022/07/29 11:38:41;;;;;;;4.00;1.10;;;28.20;42.00;;;;;;5024425;28;20037;-69
2022/07/29 11:41:24;;;;;;;5.30;1.02;;;28.30;42.60;;;;;;5022424;28;20044;-69
2022/07/29 11:43:57;;;;;;;7.32;1.20;;;28.20;42.20;;;;;;5023960;28;20554;-69
2022/07/29 11:46:42;;;;;;;3.88;0.90;;;28.70;42.90;;;;;;5019319;28;20069;-70
2022/07/29 11:49:09;;;;;;;4.05;0.90;;;28.90;40.70;;;;;;5028219;28;20040;-69
2022/07/29 11:51:38;;;;;;;3.33;1.10;;;28.70;39.30;;;;;;5022347;28;20052;-70
2022/07/29 11:54:05;;;;;;;4.22;0.98;;;28.80;40.80;;;;;;5017047;28;20038;-69
2022/07/29 11:56:32;;;;;;;2.50;0.88;;;28.50;41.30;;;;;;5023797;28;20041;-70
2022/07/29 11:59:06;;;;;;;4.82;1.02;;;28.80;37.40;;;;;;5026590;28;20473;-70
2022/07/29 12:01:32;;;;;;;4.35;1.00;;;28.30;38.80;;;;;;5026466;28;20052;-69
2022/07/29 12:04:07;;;;;;;4.63;1.00;;;28.30;40.60;;;;;;5023235;28;20060;-69
2022/07/29 12:06:36;;;;;;;3.85;1.10;;;27.80;40.80;;;;;;5026787;28;20034;-69
2022/07/29 12:09:07;;;;;;;21.10;1.30;;;27.40;41.00;;;;;;5029486;28;20026;-69
2022/07/29 12:11:33;;;;;;;4.03;0.93;;;27.30;42.30;;;;;;5022429;28;20056;-69
2022/07/29 12:13:58;;;;;;;2.90;0.93;;;26.80;41.20;;;;;;5028701;28;20127;-69
2022/07/29 12:16:35;;;;;;;7.20;1.40;;;26.80;43.20;;;;;;5025524;28;20029;-69
2022/07/29 12:19:02;;;;;;;3.75;1.25;;;26.60;42.20;;;;;;5028294;28;20053;-69
2022/07/29 12:21:29;;;;;;;4.82;1.30;;;26.00;42.80;;;;;;5028919;28;20108;-69
2022/07/29 12:23:56;;;;;;;5.90;1.17;;;25.70;43.00;;;;;;5031697;28;20473;-69
2022/07/29 12:26:21;;;;;;;5.30;1.15;;;25.70;45.30;;;;;;5031760;28;20029;-69
2022/07/29 12:28:47;;;;;;;4.20;1.13;;;25.50;44.20;;;;;;5025400;28;20041;-69
2022/07/29 12:31:14;;;;;;;2.70;0.80;;;25.50;45.70;;;;;;5029063;28;20127;-69
2022/07/29 12:33:40;;;;;;;3.28;1.02;;;25.50;45.00;;;;;;5031046;28;20033;-69
2022/07/29 12:36:06;;;;;;;5.28;1.30;;;25.50;43.70;;;;;;5030551;28;20044;-69
2022/07/29 12:38:32;;;;;;;5.97;1.38;;;25.90;44.20;;;;;;5031365;28;20049;-69
2022/07/29 12:40:58;;;;;;;4.97;1.17;;;25.90;46.30;;;;;;5031253;28;20512;-69
2022/07/29 12:43:24;;;;;;;7.40;1.38;;;26.10;44.40;;;;;;5032010;28;20431;-69
2022/07/29 12:45:53;;;;;;;4.80;1.00;;;26.60;45.90;;;;;;5030686;28;20039;-69
2022/07/29 12:48:36;;;;;;;4.45;1.30;;;27.10;43.40;;;;;;5028122;28;20026;-69
2022/07/29 12:51:04;;;;;;;7.18;1.30;;;27.60;41.40;;;;;;5030739;28;20232;-69
2022/07/29 12:53:30;;;;;;;2.17;0.93;;;27.90;39.40;;;;;;5029786;28;20036;-69
2022/07/29 12:56:01;;;;;;;3.28;1.13;;;29.00;38.30;;;;;;5031197;28;20025;-69
2022/07/29 12:58:28;;;;;;;4.63;0.88;;;29.60;36.30;;;;;;5031994;28;20467;-69
2022/07/29 13:01:01;;;;;;;3.78;1.10;;;30.80;36.00;;;;;;5031640;28;20032;-70
2022/07/29 13:03:27;;;;;;;2.45;0.85;;;31.40;35.70;;;;;;5029994;28;20135;-70
2022/07/29 13:05:53;;;;;;;3.90;1.20;;;31.70;34.50;;;;;;5030701;28;20384;-70